sensor_id;sensor_type;location;lat;lon;timestamp;P1;durP1;ratioP1;P2;durP2;ratioP2
60726;SDS011;46577;49.004;12.120;2022-11-11T00:00:20;28.13;;;13.43;;
60726;SDS011;46577;49.004;12.120;2022-11-11T00:02:47;39.70;;;14.70;;
60726;SDS011;46577;49.004;12.120;2022-11-11T00:05:13;36.67;;;14.03;;
60726;SDS011;46577;49.004;12.120;2022-11-11T00:07:42;45.00;;;15.23;;
60726;SDS011;46577;49.004;12.120;2022-11-11T00:10:07;77.03;;;16.27;;
60726;SDS011;46577;49.004;12.120;2022-11-11T00:12:34;49.80;;;15.40;;
60726;SDS011;46577;49.004;12.120;2022-11-11T00:14:59;78.70;;;15.53;;
60726;SDS011;46577;49.004;12.120;2022-11-11T00:17:25;52.07;;;15.67;;
60726;SDS011;46577;49.004;12.120;2022-11-11T00:20:10;40.10;;;14.50;;
60726;SDS011;46577;49.004;12.120;2022-11-11T00:22:54;44.40;;;16.97;;
60726;SDS011;46577;49.004;12.120;2022-11-11T00:25:39;32.40;;;15.00;;
60726;SDS011;46577;49.004;12.120;2022-11-11T00:28:04;36.10;;;14.97;;
60726;SDS011;46577;49.004;12.120;2022-11-11T00:30:30;71.73;;;15.40;;
60726;SDS011;46577;49.004;12.120;2022-11-11T00:32:56;42.60;;;13.83;;
60726;SDS011;46577;49.004;12.120;2022-11-11T00:35:21;35.33;;;14.90;;
60726;SDS011;46577;49.004;12.120;2022-11-11T00:38:06;63.50;;;14.53;;
60726;SDS011;46577;49.004;12.120;2022-11-11T00:40:33;46.37;;;13.70;;
60726;SDS011;46577;49.004;12.120;2022-11-11T00:42:59;53.03;;;14.37;;
60726;SDS011;46577;49.004;12.120;2022-11-11T00:45:24;64.97;;;14.30;;
60726;SDS011;46577;49.004;12.120;2022-11-11T00:47:50;62.30;;;13.47;;
60726;SDS011;46577;49.004;12.120;2022-11-11T00:50:34;77.13;;;14.10;;
60726;SDS011;46577;49.004;12.120;2022-11-11T00:53:22;35.87;;;14.10;;
60726;SDS011;46577;49.004;12.120;2022-11-11T00:55:50;34.63;;;14.00;;
60726;SDS011;46577;49.004;12.120;2022-11-11T00:58:15;58.17;;;13.47;;
60726;SDS011;46577;49.004;12.120;2022-11-11T01:00:44;50.23;;;15.00;;
60726;SDS011;46577;49.004;12.120;2022-11-11T01:03:10;69.53;;;15.30;;
60726;SDS011;46577;49.004;12.120;2022-11-11T01:05:36;53.37;;;15.87;;
60726;SDS011;46577;49.004;12.120;2022-11-11T01:08:02;46.77;;;14.73;;
60726;SDS011;46577;49.004;12.120;2022-11-11T01:10:28;41.53;;;14.17;;
60726;SDS011;46577;49.004;12.120;2022-11-11T01:13:03;45.40;;;14.13;;
60726;SDS011;46577;49.004;12.120;2022-11-11T01:15:36;61.53;;;13.60;;
60726;SDS011;46577;49.004;12.120;2022-11-11T01:18:06;48.37;;;14.00;;
60726;SDS011;46577;49.004;12.120;2022-11-11T01:20:33;62.37;;;14.40;;
60726;SDS011;46577;49.004;12.120;2022-11-11T01:22:59;54.20;;;14.07;;
60726;SDS011;46577;49.004;12.120;2022-11-11T01:25:24;42.53;;;14.77;;
60726;SDS011;46577;49.004;12.120;2022-11-11T01:27:50;46.60;;;14.20;;
60726;SDS011;46577;49.004;12.120;2022-11-11T01:30:15;48.93;;;13.77;;
60726;SDS011;46577;49.004;12.120;2022-11-11T01:32:41;42.33;;;14.30;;
60726;SDS011;46577;49.004;12.120;2022-11-11T01:35:07;36.43;;;14.27;;
60726;SDS011;46577;49.004;12.120;2022-11-11T01:37:33;44.33;;;14.87;;
60726;SDS011;46577;49.004;12.120;2022-11-11T01:39:59;53.77;;;13.77;;
60726;SDS011;46577;49.004;12.120;2022-11-11T01:42:24;74.03;;;15.40;;
60726;SDS011;46577;49.004;12.120;2022-11-11T01:44:50;37.13;;;13.67;;
60726;SDS011;46577;49.004;12.120;2022-11-11T01:47:17;63.90;;;15.13;;
60726;SDS011;46577;49.004;12.120;2022-11-11T01:49:51;45.17;;;15.47;;
60726;SDS011;46577;49.004;12.120;2022-11-11T01:52:35;48.10;;;15.63;;
60726;SDS011;46577;49.004;12.120;2022-11-11T01:55:06;31.37;;;15.67;;
60726;SDS011;46577;49.004;12.120;2022-11-11T01:57:43;45.20;;;15.67;;
60726;SDS011;46577;49.004;12.120;2022-11-11T02:00:18;65.93;;;16.20;;
60726;SDS011;46577;49.004;12.120;2022-11-11T02:02:48;61.30;;;14.30;;
60726;SDS011;46577;49.004;12.120;2022-11-11T02:05:32;44.00;;;13.60;;
60726;SDS011;46577;49.004;12.120;2022-11-11T02:11:06;40.23;;;12.90;;
60726;SDS011;46577;49.004;12.120;2022-11-11T02:13:39;42.20;;;14.13;;
60726;SDS011;46577;49.004;12.120;2022-11-11T02:16:26;39.90;;;12.07;;
60726;SDS011;46577;49.004;12.120;2022-11-11T02:18:51;68.60;;;13.73;;
60726;SDS011;46577;49.004;12.120;2022-11-11T02:21:37;35.77;;;15.10;;
60726;SDS011;46577;49.004;12.120;2022-11-11T02:24:08;59.40;;;14.23;;
60726;SDS011;46577;49.004;12.120;2022-11-11T02:26:38;63.23;;;13.77;;
60726;SDS011;46577;49.004;12.120;2022-11-11T02:29:07;72.77;;;15.40;;
60726;SDS011;46577;49.004;12.120;2022-11-11T02:31:42;63.20;;;15.67;;
60726;SDS011;46577;49.004;12.120;2022-11-11T02:34:08;41.97;;;15.37;;
60726;SDS011;46577;49.004;12.120;2022-11-11T02:36:34;54.40;;;15.30;;
60726;SDS011;46577;49.004;12.120;2022-11-11T02:39:01;43.23;;;16.27;;
60726;SDS011;46577;49.004;12.120;2022-11-11T02:41:26;72.67;;;16.17;;
60726;SDS011;46577;49.004;12.120;2022-11-11T02:44:10;42.50;;;19.00;;
60726;SDS011;46577;49.004;12.120;2022-11-11T02:46:36;46.43;;;16.50;;
60726;SDS011;46577;49.004;12.120;2022-11-11T02:49:02;58.77;;;15.27;;
60726;SDS011;46577;49.004;12.120;2022-11-11T02:51:27;59.53;;;14.53;;
60726;SDS011;46577;49.004;12.120;2022-11-11T02:53:53;51.83;;;14.00;;
60726;SDS011;46577;49.004;12.120;2022-11-11T02:56:23;58.83;;;15.63;;
60726;SDS011;46577;49.004;12.120;2022-11-11T02:59:08;53.63;;;15.37;;
60726;SDS011;46577;49.004;12.120;2022-11-11T03:01:33;65.40;;;16.67;;
60726;SDS011;46577;49.004;12.120;2022-11-11T03:03:59;62.03;;;15.10;;
60726;SDS011;46577;49.004;12.120;2022-11-11T03:06:24;57.00;;;15.60;;
60726;SDS011;46577;49.004;12.120;2022-11-11T03:08:50;44.83;;;15.63;;
60726;SDS011;46577;49.004;12.120;2022-11-11T03:11:16;40.83;;;15.37;;
60726;SDS011;46577;49.004;12.120;2022-11-11T03:13:51;34.40;;;15.40;;
60726;SDS011;46577;49.004;12.120;2022-11-11T03:16:18;44.30;;;16.67;;
60726;SDS011;46577;49.004;12.120;2022-11-11T03:19:02;44.37;;;17.00;;
60726;SDS011;46577;49.004;12.120;2022-11-11T03:21:27;40.17;;;15.10;;
60726;SDS011;46577;49.004;12.120;2022-11-11T03:23:53;40.80;;;15.40;;
60726;SDS011;46577;49.004;12.120;2022-11-11T03:26:18;39.13;;;17.40;;
60726;SDS011;46577;49.004;12.120;2022-11-11T03:28:44;29.20;;;15.77;;
60726;SDS011;46577;49.004;12.120;2022-11-11T03:31:09;50.33;;;15.67;;
60726;SDS011;46577;49.004;12.120;2022-11-11T03:33:35;38.70;;;16.43;;
60726;SDS011;46577;49.004;12.120;2022-11-11T03:36:00;33.00;;;15.90;;
60726;SDS011;46577;49.004;12.120;2022-11-11T03:38:26;49.03;;;14.77;;
60726;SDS011;46577;49.004;12.120;2022-11-11T03:40:53;47.67;;;15.17;;
60726;SDS011;46577;49.004;12.120;2022-11-11T03:43:20;39.57;;;15.37;;
60726;SDS011;46577;49.004;12.120;2022-11-11T03:45:47;31.23;;;15.47;;
60726;SDS011;46577;49.004;12.120;2022-11-11T03:48:14;35.30;;;15.10;;
60726;SDS011;46577;49.004;12.120;2022-11-11T03:50:40;45.37;;;14.20;;
60726;SDS011;46577;49.004;12.120;2022-11-11T03:53:06;29.20;;;13.33;;
60726;SDS011;46577;49.004;12.120;2022-11-11T03:55:31;42.47;;;14.33;;
60726;SDS011;46577;49.004;12.120;2022-11-11T03:57:57;39.03;;;14.10;;
60726;SDS011;46577;49.004;12.120;2022-11-11T04:00:24;47.23;;;14.17;;
60726;SDS011;46577;49.004;12.120;2022-11-11T04:02:55;56.53;;;15.13;;
60726;SDS011;46577;49.004;12.120;2022-11-11T04:05:48;27.07;;;14.13;;
60726;SDS011;46577;49.004;12.120;2022-11-11T04:08:33;46.80;;;14.60;;
60726;SDS011;46577;49.004;12.120;2022-11-11T04:11:24;41.73;;;16.20;;
60726;SDS011;46577;49.004;12.120;2022-11-11T04:13:53;48.03;;;12.83;;
60726;SDS011;46577;49.004;12.120;2022-11-11T04:16:40;45.30;;;13.23;;
60726;SDS011;46577;49.004;12.120;2022-11-11T04:19:05;31.70;;;12.40;;
60726;SDS011;46577;49.004;12.120;2022-11-11T04:21:50;37.90;;;14.50;;
60726;SDS011;46577;49.004;12.120;2022-11-11T04:24:16;37.73;;;13.80;;
60726;SDS011;46577;49.004;12.120;2022-11-11T04:27:10;66.33;;;14.63;;
60726;SDS011;46577;49.004;12.120;2022-11-11T04:29:38;65.67;;;15.17;;
60726;SDS011;46577;49.004;12.120;2022-11-11T04:32:05;44.30;;;13.70;;
60726;SDS011;46577;49.004;12.120;2022-11-11T04:35:09;34.90;;;14.03;;
60726;SDS011;46577;49.004;12.120;2022-11-11T04:37:36;44.97;;;15.23;;
60726;SDS011;46577;49.004;12.120;2022-11-11T04:40:10;23.53;;;13.33;;
60726;SDS011;46577;49.004;12.120;2022-11-11T04:42:54;33.47;;;13.80;;
60726;SDS011;46577;49.004;12.120;2022-11-11T04:45:20;32.93;;;15.40;;
60726;SDS011;46577;49.004;12.120;2022-11-11T04:50:36;32.40;;;14.30;;
60726;SDS011;46577;49.004;12.120;2022-11-11T04:53:04;28.90;;;14.23;;
60726;SDS011;46577;49.004;12.120;2022-11-11T04:55:31;32.10;;;14.97;;
60726;SDS011;46577;49.004;12.120;2022-11-11T04:58:16;32.10;;;13.50;;
60726;SDS011;46577;49.004;12.120;2022-11-11T05:00:42;36.87;;;14.30;;
60726;SDS011;46577;49.004;12.120;2022-11-11T05:03:09;54.17;;;15.70;;
60726;SDS011;46577;49.004;12.120;2022-11-11T05:08:36;57.33;;;15.07;;
60726;SDS011;46577;49.004;12.120;2022-11-11T05:11:23;36.90;;;14.13;;
60726;SDS011;46577;49.004;12.120;2022-11-11T05:13:54;36.97;;;14.90;;
60726;SDS011;46577;49.004;12.120;2022-11-11T05:16:46;44.27;;;15.67;;
60726;SDS011;46577;49.004;12.120;2022-11-11T05:19:40;35.80;;;14.73;;
60726;SDS011;46577;49.004;12.120;2022-11-11T05:22:35;33.13;;;14.97;;
60726;SDS011;46577;49.004;12.120;2022-11-11T05:25:03;48.33;;;14.17;;
60726;SDS011;46577;49.004;12.120;2022-11-11T05:27:48;34.43;;;14.83;;
60726;SDS011;46577;49.004;12.120;2022-11-11T05:30:14;63.93;;;15.87;;
60726;SDS011;46577;49.004;12.120;2022-11-11T05:32:41;36.33;;;14.97;;
60726;SDS011;46577;49.004;12.120;2022-11-11T05:35:07;29.03;;;14.23;;
60726;SDS011;46577;49.004;12.120;2022-11-11T05:37:34;30.97;;;14.73;;
60726;SDS011;46577;49.004;12.120;2022-11-11T05:39:59;38.03;;;16.80;;
60726;SDS011;46577;49.004;12.120;2022-11-11T05:42:25;58.10;;;15.27;;
60726;SDS011;46577;49.004;12.120;2022-11-11T05:44:51;53.60;;;16.00;;
60726;SDS011;46577;49.004;12.120;2022-11-11T05:47:17;51.33;;;15.40;;
60726;SDS011;46577;49.004;12.120;2022-11-11T05:49:42;43.23;;;16.80;;
60726;SDS011;46577;49.004;12.120;2022-11-11T05:52:09;80.90;;;17.77;;
60726;SDS011;46577;49.004;12.120;2022-11-11T05:54:36;60.17;;;15.47;;
60726;SDS011;46577;49.004;12.120;2022-11-11T05:57:01;37.03;;;14.53;;
60726;SDS011;46577;49.004;12.120;2022-11-11T05:59:28;41.80;;;15.20;;
60726;SDS011;46577;49.004;12.120;2022-11-11T06:01:54;67.37;;;14.50;;
60726;SDS011;46577;49.004;12.120;2022-11-11T06:04:19;39.90;;;14.57;;
60726;SDS011;46577;49.004;12.120;2022-11-11T06:06:45;44.30;;;15.33;;
60726;SDS011;46577;49.004;12.120;2022-11-11T06:09:11;55.03;;;15.77;;
60726;SDS011;46577;49.004;12.120;2022-11-11T06:11:36;78.80;;;13.93;;
60726;SDS011;46577;49.004;12.120;2022-11-11T06:14:02;61.50;;;14.27;;
60726;SDS011;46577;49.004;12.120;2022-11-11T06:16:28;51.00;;;12.57;;
60726;SDS011;46577;49.004;12.120;2022-11-11T06:18:54;43.53;;;15.07;;
60726;SDS011;46577;49.004;12.120;2022-11-11T06:21:19;35.93;;;13.43;;
60726;SDS011;46577;49.004;12.120;2022-11-11T06:23:45;41.77;;;16.50;;
60726;SDS011;46577;49.004;12.120;2022-11-11T06:26:11;50.83;;;14.30;;
60726;SDS011;46577;49.004;12.120;2022-11-11T06:28:38;77.43;;;14.97;;
60726;SDS011;46577;49.004;12.120;2022-11-11T06:31:04;43.07;;;15.10;;
60726;SDS011;46577;49.004;12.120;2022-11-11T06:33:31;49.27;;;14.97;;
60726;SDS011;46577;49.004;12.120;2022-11-11T06:35:59;88.00;;;16.80;;
60726;SDS011;46577;49.004;12.120;2022-11-11T06:38:25;43.77;;;15.23;;
60726;SDS011;46577;49.004;12.120;2022-11-11T06:40:50;36.80;;;15.03;;
60726;SDS011;46577;49.004;12.120;2022-11-11T06:43:16;50.23;;;14.97;;
60726;SDS011;46577;49.004;12.120;2022-11-11T06:45:42;41.10;;;16.10;;
60726;SDS011;46577;49.004;12.120;2022-11-11T06:48:07;41.53;;;15.83;;
60726;SDS011;46577;49.004;12.120;2022-11-11T06:50:33;57.87;;;16.70;;
60726;SDS011;46577;49.004;12.120;2022-11-11T06:53:06;36.80;;;15.87;;
60726;SDS011;46577;49.004;12.120;2022-11-11T06:55:33;52.13;;;18.00;;
60726;SDS011;46577;49.004;12.120;2022-11-11T06:58:12;42.23;;;16.97;;
60726;SDS011;46577;49.004;12.120;2022-11-11T07:00:40;44.03;;;17.27;;
60726;SDS011;46577;49.004;12.120;2022-11-11T07:03:08;49.53;;;17.37;;
60726;SDS011;46577;49.004;12.120;2022-11-11T07:05:36;48.50;;;16.77;;
60726;SDS011;46577;49.004;12.120;2022-11-11T07:08:06;44.20;;;14.97;;
60726;SDS011;46577;49.004;12.120;2022-11-11T07:10:37;38.87;;;16.63;;
60726;SDS011;46577;49.004;12.120;2022-11-11T07:13:04;37.93;;;14.63;;
60726;SDS011;46577;49.004;12.120;2022-11-11T07:15:30;38.93;;;15.30;;
60726;SDS011;46577;49.004;12.120;2022-11-11T07:17:56;32.93;;;15.07;;
60726;SDS011;46577;49.004;12.120;2022-11-11T07:20:22;38.90;;;17.90;;
60726;SDS011;46577;49.004;12.120;2022-11-11T07:22:48;53.93;;;14.90;;
60726;SDS011;46577;49.004;12.120;2022-11-11T07:25:13;40.77;;;15.90;;
60726;SDS011;46577;49.004;12.120;2022-11-11T07:27:39;37.87;;;14.73;;
60726;SDS011;46577;49.004;12.120;2022-11-11T07:30:06;49.53;;;16.07;;
60726;SDS011;46577;49.004;12.120;2022-11-11T07:32:32;23.83;;;13.00;;
60726;SDS011;46577;49.004;12.120;2022-11-11T07:34:58;37.13;;;15.60;;
60726;SDS011;46577;49.004;12.120;2022-11-11T07:37:24;37.67;;;14.97;;
60726;SDS011;46577;49.004;12.120;2022-11-11T07:39:50;34.20;;;15.37;;
60726;SDS011;46577;49.004;12.120;2022-11-11T07:42:15;29.87;;;13.53;;
60726;SDS011;46577;49.004;12.120;2022-11-11T07:44:41;22.80;;;13.10;;
60726;SDS011;46577;49.004;12.120;2022-11-11T07:47:06;27.90;;;13.20;;
60726;SDS011;46577;49.004;12.120;2022-11-11T07:49:32;22.53;;;11.87;;
60726;SDS011;46577;49.004;12.120;2022-11-11T07:51:58;27.63;;;12.93;;
60726;SDS011;46577;49.004;12.120;2022-11-11T07:54:24;25.97;;;14.57;;
60726;SDS011;46577;49.004;12.120;2022-11-11T07:56:49;27.67;;;14.00;;
60726;SDS011;46577;49.004;12.120;2022-11-11T07:59:15;30.17;;;14.33;;
60726;SDS011;46577;49.004;12.120;2022-11-11T08:01:41;27.40;;;14.03;;
60726;SDS011;46577;49.004;12.120;2022-11-11T08:04:07;25.83;;;13.30;;
60726;SDS011;46577;49.004;12.120;2022-11-11T08:06:32;28.97;;;13.93;;
60726;SDS011;46577;49.004;12.120;2022-11-11T08:08:58;36.07;;;14.10;;
60726;SDS011;46577;49.004;12.120;2022-11-11T08:11:23;23.63;;;11.80;;
60726;SDS011;46577;49.004;12.120;2022-11-11T08:14:08;22.00;;;12.60;;
60726;SDS011;46577;49.004;12.120;2022-11-11T08:16:33;25.20;;;14.63;;
60726;SDS011;46577;49.004;12.120;2022-11-11T08:18:59;21.10;;;12.83;;
60726;SDS011;46577;49.004;12.120;2022-11-11T08:21:25;23.80;;;11.70;;
60726;SDS011;46577;49.004;12.120;2022-11-11T08:23:51;28.03;;;10.57;;
60726;SDS011;46577;49.004;12.120;2022-11-11T08:26:17;20.70;;;10.60;;
60726;SDS011;46577;49.004;12.120;2022-11-11T08:28:43;23.40;;;11.37;;
60726;SDS011;46577;49.004;12.120;2022-11-11T08:31:09;20.13;;;10.90;;
60726;SDS011;46577;49.004;12.120;2022-11-11T08:33:35;20.70;;;12.40;;
60726;SDS011;46577;49.004;12.120;2022-11-11T08:36:01;26.93;;;11.53;;
60726;SDS011;46577;49.004;12.120;2022-11-11T08:38:28;17.83;;;10.43;;
60726;SDS011;46577;49.004;12.120;2022-11-11T08:40:53;16.23;;;10.10;;
60726;SDS011;46577;49.004;12.120;2022-11-11T08:43:20;16.53;;;9.80;;
60726;SDS011;46577;49.004;12.120;2022-11-11T08:45:46;23.10;;;10.90;;
60726;SDS011;46577;49.004;12.120;2022-11-11T08:48:12;20.67;;;11.70;;
60726;SDS011;46577;49.004;12.120;2022-11-11T08:50:38;32.40;;;12.40;;
60726;SDS011;46577;49.004;12.120;2022-11-11T08:53:05;18.83;;;10.37;;
60726;SDS011;46577;49.004;12.120;2022-11-11T08:55:35;22.83;;;10.47;;
60726;SDS011;46577;49.004;12.120;2022-11-11T08:58:02;30.03;;;12.43;;
60726;SDS011;46577;49.004;12.120;2022-11-11T09:00:29;18.07;;;10.83;;
60726;SDS011;46577;49.004;12.120;2022-11-11T09:03:05;18.73;;;10.33;;
60726;SDS011;46577;49.004;12.120;2022-11-11T09:05:34;20.40;;;10.63;;
60726;SDS011;46577;49.004;12.120;2022-11-11T09:08:03;16.90;;;9.73;;
60726;SDS011;46577;49.004;12.120;2022-11-11T09:10:35;24.80;;;10.37;;
60726;SDS011;46577;49.004;12.120;2022-11-11T09:13:01;15.60;;;10.30;;
60726;SDS011;46577;49.004;12.120;2022-11-11T09:15:27;22.33;;;12.00;;
60726;SDS011;46577;49.004;12.120;2022-11-11T09:17:53;16.07;;;10.23;;
60726;SDS011;46577;49.004;12.120;2022-11-11T09:20:19;20.03;;;9.60;;
60726;SDS011;46577;49.004;12.120;2022-11-11T09:22:45;15.67;;;9.53;;
60726;SDS011;46577;49.004;12.120;2022-11-11T09:25:12;16.43;;;11.00;;
60726;SDS011;46577;49.004;12.120;2022-11-11T09:27:38;15.30;;;9.47;;
60726;SDS011;46577;49.004;12.120;2022-11-11T09:30:05;16.33;;;9.50;;
60726;SDS011;46577;49.004;12.120;2022-11-11T09:32:31;29.90;;;9.43;;
60726;SDS011;46577;49.004;12.120;2022-11-11T09:34:57;11.40;;;8.03;;
60726;SDS011;46577;49.004;12.120;2022-11-11T09:37:24;13.80;;;8.80;;
60726;SDS011;46577;49.004;12.120;2022-11-11T09:39:50;17.47;;;9.23;;
60726;SDS011;46577;49.004;12.120;2022-11-11T09:45:02;15.47;;;9.77;;
60726;SDS011;46577;49.004;12.120;2022-11-11T09:50:23;13.03;;;8.60;;
60726;SDS011;46577;49.004;12.120;2022-11-11T09:52:52;14.40;;;7.67;;
60726;SDS011;46577;49.004;12.120;2022-11-11T09:55:24;15.63;;;8.67;;
60726;SDS011;46577;49.004;12.120;2022-11-11T09:57:57;12.97;;;8.00;;
60726;SDS011;46577;49.004;12.120;2022-11-11T10:00:27;13.50;;;7.80;;
60726;SDS011;46577;49.004;12.120;2022-11-11T10:02:58;12.70;;;8.73;;
60726;SDS011;46577;49.004;12.120;2022-11-11T10:08:41;9.27;;;7.50;;
60726;SDS011;46577;49.004;12.120;2022-11-11T10:11:18;10.23;;;7.17;;
60726;SDS011;46577;49.004;12.120;2022-11-11T10:14:00;11.77;;;8.33;;
60726;SDS011;46577;49.004;12.120;2022-11-11T10:16:32;13.97;;;8.47;;
60726;SDS011;46577;49.004;12.120;2022-11-11T10:21:53;12.80;;;8.40;;
60726;SDS011;46577;49.004;12.120;2022-11-11T10:24:31;16.23;;;9.10;;
60726;SDS011;46577;49.004;12.120;2022-11-11T10:27:00;13.93;;;9.20;;
60726;SDS011;46577;49.004;12.120;2022-11-11T10:29:35;16.50;;;8.30;;
60726;SDS011;46577;49.004;12.120;2022-11-11T10:32:09;13.60;;;8.17;;
60726;SDS011;46577;49.004;12.120;2022-11-11T10:34:47;11.03;;;7.40;;
60726;SDS011;46577;49.004;12.120;2022-11-11T10:37:38;15.40;;;9.27;;
60726;SDS011;46577;49.004;12.120;2022-11-11T10:40:16;12.47;;;9.10;;
60726;SDS011;46577;49.004;12.120;2022-11-11T10:42:46;12.50;;;8.27;;
60726;SDS011;46577;49.004;12.120;2022-11-11T10:47:53;12.43;;;8.57;;
60726;SDS011;46577;49.004;12.120;2022-11-11T10:50:29;15.60;;;7.77;;
60726;SDS011;46577;49.004;12.120;2022-11-11T10:53:00;12.87;;;8.40;;
60726;SDS011;46577;49.004;12.120;2022-11-11T10:58:20;13.70;;;10.17;;
60726;SDS011;46577;49.004;12.120;2022-11-11T11:00:57;16.23;;;9.40;;
60726;SDS011;46577;49.004;12.120;2022-11-11T11:03:35;14.20;;;8.57;;
60726;SDS011;46577;49.004;12.120;2022-11-11T11:06:19;16.00;;;9.87;;
60726;SDS011;46577;49.004;12.120;2022-11-11T11:09:00;17.83;;;10.27;;
60726;SDS011;46577;49.004;12.120;2022-11-11T11:11:35;17.57;;;10.60;;
60726;SDS011;46577;49.004;12.120;2022-11-11T11:14:07;15.87;;;10.73;;
60726;SDS011;46577;49.004;12.120;2022-11-11T11:16:41;20.00;;;11.47;;
60726;SDS011;46577;49.004;12.120;2022-11-11T11:21:59;18.83;;;11.13;;
60726;SDS011;46577;49.004;12.120;2022-11-11T11:26:54;15.03;;;9.60;;
60726;SDS011;46577;49.004;12.120;2022-11-11T11:29:25;14.53;;;9.97;;
60726;SDS011;46577;49.004;12.120;2022-11-11T11:31:51;16.83;;;10.23;;
60726;SDS011;46577;49.004;12.120;2022-11-11T11:34:17;17.80;;;10.77;;
60726;SDS011;46577;49.004;12.120;2022-11-11T11:36:42;17.33;;;10.60;;
60726;SDS011;46577;49.004;12.120;2022-11-11T11:39:08;18.03;;;10.90;;
60726;SDS011;46577;49.004;12.120;2022-11-11T11:41:38;17.00;;;10.20;;
60726;SDS011;46577;49.004;12.120;2022-11-11T11:46:55;16.83;;;9.50;;
60726;SDS011;46577;49.004;12.120;2022-11-11T12:00:22;21.97;;;12.10;;
60726;SDS011;46577;49.004;12.120;2022-11-11T12:05:37;21.30;;;11.60;;
60726;SDS011;46577;49.004;12.120;2022-11-11T12:10:56;25.10;;;12.90;;
60726;SDS011;46577;49.004;12.120;2022-11-11T12:16:03;21.50;;;12.30;;
60726;SDS011;46577;49.004;12.120;2022-11-11T12:21:41;22.33;;;12.10;;
60726;SDS011;46577;49.004;12.120;2022-11-11T12:42:53;24.47;;;12.27;;
60726;SDS011;46577;49.004;12.120;2022-11-11T12:46:25;26.40;;;13.30;;
60726;SDS011;46577;49.004;12.120;2022-11-11T12:56:39;25.10;;;13.90;;
60726;SDS011;46577;49.004;12.120;2022-11-11T12:59:30;20.83;;;11.97;;
60726;SDS011;46577;49.004;12.120;2022-11-11T13:02:29;22.30;;;13.00;;
60726;SDS011;46577;49.004;12.120;2022-11-11T13:05:18;22.20;;;12.10;;
60726;SDS011;46577;49.004;12.120;2022-11-11T13:11:00;28.63;;;14.03;;
60726;SDS011;46577;49.004;12.120;2022-11-11T13:16:25;22.30;;;12.37;;
60726;SDS011;46577;49.004;12.120;2022-11-11T13:18:56;24.63;;;13.33;;
60726;SDS011;46577;49.004;12.120;2022-11-11T13:21:29;31.43;;;14.47;;
60726;SDS011;46577;49.004;12.120;2022-11-11T13:24:00;28.33;;;16.10;;
60726;SDS011;46577;49.004;12.120;2022-11-11T13:26:30;27.07;;;15.43;;
60726;SDS011;46577;49.004;12.120;2022-11-11T13:29:24;26.97;;;14.47;;
60726;SDS011;46577;49.004;12.120;2022-11-11T13:32:07;22.60;;;13.50;;
60726;SDS011;46577;49.004;12.120;2022-11-11T13:34:37;28.27;;;14.20;;
60726;SDS011;46577;49.004;12.120;2022-11-11T13:37:04;31.57;;;15.53;;
60726;SDS011;46577;49.004;12.120;2022-11-11T13:39:34;29.63;;;15.27;;
60726;SDS011;46577;49.004;12.120;2022-11-11T13:42:04;27.63;;;14.90;;
60726;SDS011;46577;49.004;12.120;2022-11-11T13:44:48;43.50;;;16.40;;
60726;SDS011;46577;49.004;12.120;2022-11-11T13:47:20;26.83;;;14.70;;
60726;SDS011;46577;49.004;12.120;2022-11-11T13:52:26;31.90;;;14.23;;
60726;SDS011;46577;49.004;12.120;2022-11-11T13:55:00;25.87;;;14.10;;
60726;SDS011;46577;49.004;12.120;2022-11-11T13:57:31;31.80;;;14.30;;
60726;SDS011;46577;49.004;12.120;2022-11-11T14:02:31;30.27;;;15.53;;
60726;SDS011;46577;49.004;12.120;2022-11-11T14:12:49;32.30;;;16.00;;
60726;SDS011;46577;49.004;12.120;2022-11-11T14:18:10;30.67;;;16.10;;
60726;SDS011;46577;49.004;12.120;2022-11-11T14:20:42;32.80;;;17.07;;
60726;SDS011;46577;49.004;12.120;2022-11-11T14:33:48;38.30;;;18.00;;
60726;SDS011;46577;49.004;12.120;2022-11-11T14:36:21;30.90;;;17.80;;
60726;SDS011;46577;49.004;12.120;2022-11-11T14:41:56;28.13;;;15.83;;
60726;SDS011;46577;49.004;12.120;2022-11-11T14:44:36;29.83;;;16.17;;
60726;SDS011;46577;49.004;12.120;2022-11-11T14:49:51;38.80;;;18.60;;
60726;SDS011;46577;49.004;12.120;2022-11-11T14:57:41;37.03;;;17.53;;
60726;SDS011;46577;49.004;12.120;2022-11-11T15:02:43;32.47;;;17.13;;
60726;SDS011;46577;49.004;12.120;2022-11-11T15:08:26;33.80;;;18.13;;
60726;SDS011;46577;49.004;12.120;2022-11-11T15:11:56;38.33;;;19.90;;
60726;SDS011;46577;49.004;12.120;2022-11-11T15:25:55;40.40;;;19.67;;
60726;SDS011;46577;49.004;12.120;2022-11-11T15:39:40;62.87;;;25.40;;
60726;SDS011;46577;49.004;12.120;2022-11-11T15:42:57;46.63;;;21.70;;
60726;SDS011;46577;49.004;12.120;2022-11-11T15:45:13;42.30;;;21.83;;
60726;SDS011;46577;49.004;12.120;2022-11-11T15:47:46;41.00;;;21.50;;
60726;SDS011;46577;49.004;12.120;2022-11-11T15:52:52;50.33;;;22.77;;
60726;SDS011;46577;49.004;12.120;2022-11-11T15:55:20;38.47;;;20.53;;
60726;SDS011;46577;49.004;12.120;2022-11-11T15:58:07;43.17;;;21.00;;
60726;SDS011;46577;49.004;12.120;2022-11-11T16:00:35;47.53;;;20.77;;
60726;SDS011;46577;49.004;12.120;2022-11-11T16:03:01;46.50;;;20.70;;
60726;SDS011;46577;49.004;12.120;2022-11-11T16:05:28;47.83;;;21.20;;
60726;SDS011;46577;49.004;12.120;2022-11-11T16:07:56;39.03;;;21.13;;
60726;SDS011;46577;49.004;12.120;2022-11-11T16:10:31;38.77;;;21.40;;
60726;SDS011;46577;49.004;12.120;2022-11-11T16:13:06;49.30;;;22.30;;
60726;SDS011;46577;49.004;12.120;2022-11-11T16:15:37;50.47;;;21.70;;
60726;SDS011;46577;49.004;12.120;2022-11-11T16:18:04;53.43;;;24.50;;
60726;SDS011;46577;49.004;12.120;2022-11-11T16:20:39;50.60;;;22.07;;
60726;SDS011;46577;49.004;12.120;2022-11-11T16:23:10;42.67;;;21.13;;
60726;SDS011;46577;49.004;12.120;2022-11-11T16:25:40;43.00;;;20.80;;
60726;SDS011;46577;49.004;12.120;2022-11-11T16:28:06;59.47;;;24.37;;
60726;SDS011;46577;49.004;12.120;2022-11-11T16:30:35;43.87;;;21.60;;
60726;SDS011;46577;49.004;12.120;2022-11-11T16:33:01;44.50;;;22.07;;
60726;SDS011;46577;49.004;12.120;2022-11-11T16:35:31;44.67;;;21.93;;
60726;SDS011;46577;49.004;12.120;2022-11-11T16:38:02;48.47;;;22.17;;
60726;SDS011;46577;49.004;12.120;2022-11-11T16:51:23;50.90;;;22.20;;
60726;SDS011;46577;49.004;12.120;2022-11-11T16:54:09;47.00;;;21.13;;
60726;SDS011;46577;49.004;12.120;2022-11-11T16:56:41;46.70;;;22.00;;
60726;SDS011;46577;49.004;12.120;2022-11-11T16:59:15;52.80;;;21.70;;
60726;SDS011;46577;49.004;12.120;2022-11-11T17:02:01;50.33;;;22.00;;
60726;SDS011;46577;49.004;12.120;2022-11-11T17:04:44;55.73;;;24.23;;
60726;SDS011;46577;49.004;12.120;2022-11-11T17:07:47;46.73;;;21.23;;
60726;SDS011;46577;49.004;12.120;2022-11-11T17:12:32;50.70;;;21.20;;
60726;SDS011;46577;49.004;12.120;2022-11-11T17:14:59;52.40;;;21.17;;
60726;SDS011;46577;49.004;12.120;2022-11-11T17:17:25;45.90;;;22.00;;
60726;SDS011;46577;49.004;12.120;2022-11-11T17:19:59;60.60;;;23.87;;
60726;SDS011;46577;49.004;12.120;2022-11-11T17:22:28;46.53;;;23.00;;